Time;durP1;ratioP1;P1;durP2;ratioP2;P2;SDS_P1;SDS_P2;PMS_P1;PMS_P2;Temp;Humidity;BMP_temperature;BMP_pressure;BME280_temperature;BME280_humidity;BME280_pressure;Samples;Min_cycle;Max_cycle;Signal;HPM_P1;HPM_P2
2021/07/10 00:00:33;;;;;;;14.35;4.82;;;;;;;26.47;60.39;100508.28;5070063;28;20785;-69
2021/07/10 00:03:00;;;;;;;18.13;5.28;;;;;;;26.46;60.63;100513.78;5068963;28;20440;-68
2021/07/10 00:05:28;;;;;;;13.88;4.78;;;;;;;26.45;60.28;100512.91;5069609;28;20041;-68
2021/07/10 00:07:57;;;;;;;13.32;4.57;;;;;;;26.43;60.31;100513.97;5069736;28;20040;-68
2021/07/10 00:10:25;;;;;;;14.23;4.57;;;;;;;26.39;60.89;100510.53;5069859;28;20124;-68
2021/07/10 00:12:53;;;;;;;18.05;4.28;;;;;;;26.42;60.49;100506.78;5068062;28;20055;-68
2021/07/10 00:15:24;;;;;;;16.23;4.95;;;;;;;26.41;61.14;100503.22;5049505;28;20124;-69
2021/07/10 00:17:52;;;;;;;14.68;4.20;;;;;;;26.41;60.64;100500.50;5059968;28;20226;-68
2021/07/10 00:20:20;;;;;;;16.25;4.78;;;;;;;26.39;61.09;100499.69;5070595;28;20045;-69
2021/07/10 00:22:49;;;;;;;17.77;4.97;;;;;;;26.39;60.86;100497.00;5069289;28;20120;-68
2021/07/10 00:25:19;;;;;;;10.02;3.30;;;;;;;26.37;60.95;100498.94;5069778;28;20139;-68
2021/07/10 00:27:48;;;;;;;15.32;5.32;;;;;;;26.35;61.10;100491.84;5068558;28;20072;-67
2021/07/10 00:30:19;;;;;;;12.60;5.18;;;;;;;26.35;60.74;100497.25;5070178;28;20486;-67
2021/07/10 00:32:46;;;;;;;16.20;4.57;;;;;;;26.36;61.11;100494.47;5069349;28;20558;-66
2021/07/10 00:35:15;;;;;;;18.98;4.70;;;;;;;26.36;60.98;100490.88;5069593;28;20044;-67
2021/07/10 00:37:42;;;;;;;17.02;4.90;;;;;;;26.36;60.99;100482.75;5069096;28;20467;-67
2021/07/10 00:40:11;;;;;;;12.43;4.95;;;;;;;26.34;61.04;100482.84;5069202;28;20037;-67
2021/07/10 00:42:42;;;;;;;12.25;4.18;;;;;;;26.37;60.54;100484.53;5049507;28;20037;-67
2021/07/10 00:45:11;;;;;;;16.63;4.93;;;;;;;26.37;60.74;100487.22;5053178;28;20067;-67
2021/07/10 00:47:39;;;;;;;15.13;4.82;;;;;;;26.34;60.17;100474.72;5069002;28;20132;-67
2021/07/10 00:50:12;;;;;;;15.65;4.63;;;;;;;26.33;59.93;100478.38;5068922;28;20120;-66
2021/07/10 00:52:39;;;;;;;11.70;4.32;;;;;;;26.31;59.81;100474.03;5070137;28;20047;-68
2021/07/10 00:55:09;;;;;;;12.70;3.67;;;;;;;26.28;59.75;100466.94;5067930;28;20584;-67
2021/07/10 00:57:38;;;;;;;19.20;4.65;;;;;;;26.30;59.61;100472.28;5066850;28;20549;-67
2021/07/10 01:00:11;;;;;;;12.50;3.88;;;;;;;26.30;59.83;100467.72;5069448;28;20121;-66
2021/07/10 01:02:41;;;;;;;15.90;5.22;;;;;;;26.28;59.43;100455.22;5069463;28;20040;-66
2021/07/10 01:05:10;;;;;;;13.80;4.05;;;;;;;26.28;59.47;100466.06;5068985;28;20048;-67
2021/07/10 01:07:39;;;;;;;14.98;4.00;;;;;;;26.28;59.58;100463.34;5069398;28;20059;-67
2021/07/10 01:10:08;;;;;;;12.07;4.00;;;;;;;26.28;59.40;100464.22;5070544;28;20066;-68
2021/07/10 01:12:38;;;;;;;13.23;3.78;;;;;;;26.25;58.95;100464.41;5072835;28;20045;-67
2021/07/10 01:15:11;;;;;;;16.30;3.65;;;;;;;26.25;59.27;100455.41;5070863;28;20497;-67
2021/07/10 01:17:42;;;;;;;12.27;4.07;;;;;;;26.25;58.84;100460.81;5072298;28;20075;-67
2021/07/10 01:20:12;;;;;;;12.07;4.05;;;;;;;26.25;58.78;100463.53;5073189;28;20040;-67
2021/07/10 01:22:43;;;;;;;16.63;4.28;;;;;;;26.24;59.08;100462.66;5073124;28;20040;-68
2021/07/10 01:25:13;;;;;;;14.95;4.13;;;;;;;26.22;58.84;100455.53;5072550;28;20166;-67
2021/07/10 01:27:42;;;;;;;12.75;4.65;;;;;;;26.21;58.22;100462.78;5071841;28;20041;-67
2021/07/10 01:30:12;;;;;;;12.73;4.32;;;;;;;26.20;58.37;100463.72;5072857;28;20056;-67
2021/07/10 01:32:41;;;;;;;15.88;4.20;;;;;;;26.21;58.56;100451.94;5072567;28;20044;-67
2021/07/10 01:35:10;;;;;;;14.73;4.05;;;;;;;26.20;58.35;100461.00;5072723;28;20155;-66
2021/07/10 01:37:38;;;;;;;13.68;3.75;;;;;;;26.19;58.64;100460.13;5072827;28;20068;-67
2021/07/10 01:40:11;;;;;;;18.23;4.40;;;;;;;26.15;58.62;100453.16;5071710;28;20037;-67
2021/07/10 01:42:38;;;;;;;15.70;4.88;;;;;;;26.12;58.43;100452.47;5072585;28;20041;-67
2021/07/10 01:45:07;;;;;;;13.75;4.60;;;;;;;26.12;58.39;100449.75;5072483;28;20056;-67
2021/07/10 01:47:34;;;;;;;16.08;4.30;;;;;;;26.10;58.72;100449.81;5072790;28;20493;-67
2021/07/10 01:50:04;;;;;;;14.05;4.05;;;;;;;26.08;58.14;100445.44;5072105;28;20119;-66
2021/07/10 01:52:32;;;;;;;11.43;4.03;;;;;;;26.10;58.27;100454.38;5070511;28;20115;-66
2021/07/10 01:55:00;;;;;;;21.42;4.88;;;;;;;26.09;58.36;100450.78;5072447;28;20033;-66
2021/07/10 01:57:29;;;;;;;13.65;4.30;;;;;;;26.11;58.45;100448.88;5072250;28;20128;-67
2021/07/10 01:59:56;;;;;;;14.00;4.50;;;;;;;26.10;58.02;100443.53;5070425;28;20117;-67
2021/07/10 02:02:24;;;;;;;15.73;4.03;;;;;;;26.10;57.84;100439.00;5071981;28;20047;-67
2021/07/10 02:04:53;;;;;;;10.68;3.88;;;;;;;26.10;57.95;100447.13;5070412;28;20416;-68
2021/07/10 02:07:21;;;;;;;17.58;4.85;;;;;;;26.09;57.96;100439.94;5071422;28;20436;-67
2021/07/10 02:09:48;;;;;;;13.00;4.00;;;;;;;26.05;57.85;100445.63;5071231;28;22358;-68
2021/07/10 02:12:16;;;;;;;14.10;4.13;;;;;;;26.05;57.88;100451.91;5071149;28;20075;-67
2021/07/10 02:14:45;;;;;;;9.48;3.47;;;;;;;26.03;57.41;100442.13;5071496;28;20110;-68
2021/07/10 02:17:13;;;;;;;17.60;3.67;;;;;;;26.01;57.71;100444.91;5071389;28;20047;-68
2021/07/10 02:19:41;;;;;;;14.55;3.83;;;;;;;25.99;57.32;100445.94;5071456;28;20067;-67
2021/07/10 02:22:10;;;;;;;11.35;3.45;;;;;;;25.99;57.52;100432.41;5070665;28;20040;-67
2021/07/10 02:24:37;;;;;;;16.40;3.92;;;;;;;25.97;57.34;100421.69;5071639;28;20040;-68
2021/07/10 02:27:05;;;;;;;15.15;3.90;;;;;;;25.99;57.37;100424.31;5071083;28;20485;-67
2021/07/10 02:29:33;;;;;;;11.25;3.83;;;;;;;25.96;57.76;100419.91;5071327;28;20037;-67
2021/07/10 02:32:02;;;;;;;15.05;4.25;;;;;;;25.93;57.86;100425.47;5071497;28;20676;-67
2021/07/10 02:34:29;;;;;;;11.80;3.80;;;;;;;25.91;58.04;100423.84;5071271;28;20039;-67
2021/07/10 02:36:57;;;;;;;12.57;4.22;;;;;;;25.88;58.00;100423.97;5071441;28;20131;-67
2021/07/10 02:39:24;;;;;;;13.27;3.92;;;;;;;25.91;58.14;100421.13;5071271;28;20435;-67
2021/07/10 02:41:52;;;;;;;12.40;4.07;;;;;;;25.89;57.91;100421.19;5070965;28;20549;-67
2021/07/10 02:44:19;;;;;;;15.43;3.90;;;;;;;25.89;58.21;100428.44;5071265;28;20044;-67
2021/07/10 02:46:48;;;;;;;15.75;3.55;;;;;;;25.88;57.99;100415.88;5071193;28;20053;-67
2021/07/10 02:49:17;;;;;;;14.40;4.38;;;;;;;25.86;58.11;100418.69;5071376;28;20040;-67
2021/07/10 02:51:45;;;;;;;16.63;4.65;;;;;;;25.86;58.15;100424.09;5068585;28;20618;-67
2021/07/10 02:54:12;;;;;;;16.98;4.32;;;;;;;25.83;58.17;100418.81;5071043;28;20120;-67
2021/07/10 02:56:40;;;;;;;14.43;3.90;;;;;;;25.81;58.10;100415.31;5070479;28;20714;-67
2021/07/10 02:59:07;;;;;;;13.32;3.67;;;;;;;25.81;57.82;100420.72;5071052;28;20028;-67
2021/07/10 03:01:35;;;;;;;14.27;4.38;;;;;;;25.84;57.42;100433.22;5070329;28;20465;-67
2021/07/10 03:04:02;;;;;;;11.68;3.60;;;;;;;25.83;57.25;100434.19;5070433;28;20035;-67
2021/07/10 03:06:31;;;;;;;10.75;4.38;;;;;;;25.79;57.26;100420.84;5071003;28;20528;-66
2021/07/10 03:09:00;;;;;;;14.85;4.07;;;;;;;25.78;57.05;100421.78;5070822;28;20056;-67
2021/07/10 03:11:28;;;;;;;14.85;3.85;;;;;;;25.79;56.73;100422.66;5069999;28;20123;-67
2021/07/10 03:13:55;;;;;;;11.50;4.15;;;;;;;25.79;56.21;100422.66;5070129;28;20071;-68
2021/07/10 03:16:23;;;;;;;12.30;4.03;;;;;;;25.83;55.74;100426.06;5070337;28;20139;-67
2021/07/10 03:18:50;;;;;;;14.07;3.97;;;;;;;25.83;56.06;100429.66;5070335;28;20068;-67
2021/07/10 03:21:18;;;;;;;16.52;3.47;;;;;;;25.86;56.28;100426.78;5069979;28;20115;-68
2021/07/10 03:23:47;;;;;;;18.52;5.13;;;;;;;26.10;55.73;100432.72;5070407;28;20106;-67
2021/07/10 03:26:15;;;;;;;14.10;3.85;;;;;;;26.15;55.43;100426.09;5070159;28;20063;-68
2021/07/10 03:28:43;;;;;;;16.52;4.03;;;;;;;26.04;56.15;100428.50;5069850;28;20119;-68
2021/07/10 03:31:11;;;;;;;13.55;3.65;;;;;;;26.03;56.02;100436.69;5068590;28;20107;-67
2021/07/10 03:33:38;;;;;;;18.13;3.50;;;;;;;26.29;55.55;100425.38;5069646;28;20037;-68
2021/07/10 03:36:07;;;;;;;12.30;3.33;;;;;;;26.18;55.69;100434.06;5070565;28;20442;-67
2021/07/10 03:38:35;;;;;;;11.77;3.55;;;;;;;26.24;55.62;100424.75;5069889;28;20107;-67
2021/07/10 03:41:05;;;;;;;17.83;3.45;;;;;;;26.32;55.00;100427.06;5069884;28;20442;-67
2021/07/10 03:43:32;;;;;;;15.15;3.80;;;;;;;26.37;55.25;100435.78;5069534;28;20040;-67
2021/07/10 03:46:02;;;;;;;15.30;4.00;;;;;;;26.44;55.37;100423.66;5069953;28;20115;-67
2021/07/10 03:48:30;;;;;;;14.75;3.85;;;;;;;26.50;55.04;100424.19;5070090;28;20052;-67
2021/07/10 03:50:58;;;;;;;13.38;3.30;;;;;;;26.62;54.25;100429.88;5070603;28;20459;-68
2021/07/10 03:53:25;;;;;;;10.13;3.55;;;;;;;26.70;54.40;100414.09;5069637;28;20036;-68
2021/07/10 03:55:53;;;;;;;16.20;4.07;;;;;;;26.77;53.74;100416.34;5069493;28;20082;-69
2021/07/10 03:58:22;;;;;;;15.27;3.72;;;;;;;26.85;54.04;100426.72;5069241;28;20094;-68
2021/07/10 04:00:50;;;;;;;10.23;3.15;;;;;;;26.91;53.70;100430.00;5069646;28;20036;-68
2021/07/10 04:03:17;;;;;;;14.60;3.72;;;;;;;27.04;53.50;100432.03;5069690;28;20094;-68
2021/07/10 04:05:45;;;;;;;10.95;3.13;;;;;;;27.17;53.17;100428.53;5069066;28;20041;-68
2021/07/10 04:08:13;;;;;;;18.30;3.72;;;;;;;27.27;52.98;100429.72;5070109;28;20392;-67
2021/07/10 04:10:40;;;;;;;13.65;3.38;;;;;;;27.40;53.21;100429.00;5069497;28;20512;-69
2021/07/10 04:13:11;;;;;;;12.20;3.53;;;;;;;27.54;53.15;100429.09;5069110;28;20118;-69
2021/07/10 04:15:41;;;;;;;10.73;2.83;;;;;;;27.65;52.61;100426.59;5069581;28;20117;-68
2021/07/10 04:18:09;;;;;;;11.48;3.35;;;;;;;27.71;52.10;100437.94;5069525;28;20040;-67
2021/07/10 04:20:36;;;;;;;9.93;3.35;;;;;;;27.85;52.50;100438.94;5069291;28;20113;-69
2021/07/10 04:23:08;;;;;;;11.68;3.00;;;;;;;27.99;52.39;100437.13;5068957;28;20041;-68
2021/07/10 04:25:35;;;;;;;13.13;3.42;;;;;;;28.11;51.92;100441.81;5068896;28;20127;-68
2021/07/10 04:28:03;;;;;;;14.65;3.38;;;;;;;28.24;51.57;100441.94;5069819;28;20028;-69
2021/07/10 04:30:31;;;;;;;10.38;3.25;;;;;;;28.38;51.62;100435.63;5070199;28;20047;-69
2021/07/10 04:33:00;;;;;;;15.07;3.08;;;;;;;28.55;51.01;100427.31;5070007;28;20128;-67
2021/07/10 04:35:27;;;;;;;10.90;2.85;;;;;;;28.71;50.50;100432.59;5068713;28;20045;-68
2021/07/10 04:37:55;;;;;;;17.27;3.63;;;;;;;28.85;50.80;100416.31;5069404;28;20132;-68
2021/07/10 04:40:22;;;;;;;13.38;3.17;;;;;;;28.95;50.38;100420.16;5069768;28;20048;-68
2021/07/10 04:42:50;;;;;;;14.15;3.10;;;;;;;29.02;50.25;100434.22;5069829;28;20071;-68
2021/07/10 04:45:18;;;;;;;13.75;3.00;;;;;;;29.19;50.31;100443.03;5071253;28;20486;-68
2021/07/10 04:47:46;;;;;;;14.75;3.15;;;;;;;29.38;49.57;100442.69;5073498;28;20032;-68
2021/07/10 04:50:16;;;;;;;18.67;3.38;;;;;;;29.56;48.69;100427.81;5073338;28;20032;-68
2021/07/10 04:52:45;;;;;;;15.60;3.03;;;;;;;29.79;48.38;100425.38;5072880;28;20127;-67
2021/07/10 04:55:14;;;;;;;17.58;3.38;;;;;;;30.05;48.30;100429.91;5072647;28;20556;-69
2021/07/10 04:57:42;;;;;;;11.05;2.92;;;;;;;30.28;47.84;100425.53;5072637;28;20032;-68
2021/07/10 05:00:11;;;;;;;14.57;3.38;;;;;;;30.43;47.30;100433.47;5073631;28;20040;-68
2021/07/10 05:02:39;;;;;;;15.55;3.58;;;;;;;30.49;46.86;100418.56;5072993;28;20116;-69
2021/07/10 05:05:07;;;;;;;16.52;3.10;;;;;;;30.54;46.82;100430.00;5072092;28;20036;-68
2021/07/10 05:07:36;;;;;;;10.23;3.22;;;;;;;30.44;47.31;100437.09;5072445;28;20044;-68
2021/07/10 05:10:05;;;;;;;16.52;3.78;;;;;;;30.56;46.65;100430.78;5072301;28;20043;-68
2021/07/10 05:12:32;;;;;;;9.48;2.80;;;;;;;30.87;45.81;100422.06;5073054;28;20499;-68
2021/07/10 05:15:00;;;;;;;13.88;3.63;;;;;;;31.07;45.10;100434.25;5052729;28;20049;-68
2021/07/10 05:17:28;;;;;;;11.93;2.80;;;;;;;31.33;44.99;100435.03;5067856;28;20119;-68
2021/07/10 05:19:55;;;;;;;12.35;3.00;;;;;;;31.50;44.64;100426.44;5072524;28;20132;-68
2021/07/10 05:22:23;;;;;;;12.00;3.50;;;;;;;31.81;44.55;100432.28;5072366;28;20047;-68
2021/07/10 05:24:52;;;;;;;10.38;2.88;;;;;;;31.92;43.92;100429.56;5072452;28;20036;-69
2021/07/10 05:27:19;;;;;;;14.77;2.90;;;;;;;31.86;44.43;100430.91;5071499;28;20090;-68
2021/07/10 05:29:47;;;;;;;9.90;3.05;;;;;;;32.00;43.86;100438.03;5071505;28;20482;-68
2021/07/10 05:32:15;;;;;;;15.77;2.97;;;;;;;32.07;43.76;100433.81;5071557;28;20045;-68
2021/07/10 05:34:43;;;;;;;10.98;2.67;;;;;;;32.14;43.53;100436.97;5072784;28;20119;-68
2021/07/10 05:37:11;;;;;;;13.60;3.17;;;;;;;32.32;43.66;100435.50;5071858;28;20521;-68
2021/07/10 05:39:39;;;;;;;15.85;3.47;;;;;;;32.33;43.54;100446.31;5072326;28;20090;-69
2021/07/10 05:42:09;;;;;;;11.80;2.65;;;;;;;32.03;43.54;100446.84;5072581;28;20094;-69
2021/07/10 05:44:37;;;;;;;18.23;3.72;;;;;;;31.62;44.64;100439.16;5071979;28;20120;-68
2021/07/10 05:47:05;;;;;;;9.40;2.95;;;;;;;31.84;44.57;100437.47;5070744;28;20067;-69
2021/07/10 05:49:33;;;;;;;23.52;4.63;;;;;;;32.16;43.17;100455.00;5072076;28;20089;-69
2021/07/10 05:52:01;;;;;;;10.02;2.65;;;;;;;32.49;42.39;100458.75;5071764;28;20040;-68
2021/07/10 05:54:29;;;;;;;9.30;2.75;;;;;;;32.61;42.59;100461.38;5072863;28;20494;-68
2021/07/10 05:56:56;;;;;;;17.80;3.13;;;;;;;32.98;41.99;100451.03;5071468;28;20045;-68
2021/07/10 05:59:25;;;;;;;16.42;2.85;;;;;;;33.12;41.69;100452.63;5071753;28;20148;-69
2021/07/10 06:01:53;;;;;;;13.20;3.35;;;;;;;33.24;41.61;100468.06;5071274;28;20123;-69
2021/07/10 06:04:20;;;;;;;11.18;3.13;;;;;;;33.31;41.65;100460.22;5071788;28;20079;-69
2021/07/10 06:06:48;;;;;;;12.05;3.50;;;;;;;33.37;41.44;100457.81;5071340;28;20124;-69
2021/07/10 06:09:15;;;;;;;13.25;3.03;;;;;;;33.21;41.57;100452.75;5071634;28;20131;-69
2021/07/10 06:11:42;;;;;;;15.27;2.90;;;;;;;32.97;41.11;100462.97;5070102;28;20116;-68
2021/07/10 06:14:12;;;;;;;14.48;3.10;;;;;;;32.71;41.81;100458.78;5070819;28;20107;-69
2021/07/10 06:16:40;;;;;;;14.63;2.63;;;;;;;32.94;41.59;100460.50;5070128;28;20406;-69
2021/07/10 06:19:08;;;;;;;16.80;3.47;;;;;;;32.93;41.47;100456.03;5071601;28;20071;-68
2021/07/10 06:21:36;;;;;;;17.35;3.10;;;;;;;32.88;41.80;100458.28;5071731;28;20521;-68
2021/07/10 06:24:04;;;;;;;17.08;3.33;;;;;;;33.11;41.39;100457.25;5071036;28;20042;-68
2021/07/10 06:26:31;;;;;;;14.18;2.85;;;;;;;33.20;41.38;100451.03;5069025;28;20124;-68
2021/07/10 06:29:00;;;;;;;16.08;3.30;;;;;;;33.20;41.15;100467.47;5062789;28;20047;-69
2021/07/10 06:31:28;;;;;;;12.68;3.00;;;;;;;32.67;41.98;100466.38;5071147;28;20040;-69
2021/07/10 06:33:59;;;;;;;9.63;2.90;;;;;;;32.49;42.93;100458.75;5071378;28;20047;-69
2021/07/10 06:36:28;;;;;;;13.90;3.28;;;;;;;32.62;42.78;100464.97;5064874;28;20571;-69
2021/07/10 06:38:55;;;;;;;16.10;3.20;;;;;;;32.99;42.25;100471.94;5061524;28;20040;-68
2021/07/10 06:41:23;;;;;;;10.00;2.85;;;;;;;33.07;42.27;100466.72;5071404;28;20116;-68
2021/07/10 06:43:51;;;;;;;18.55;3.20;;;;;;;33.08;42.05;100473.91;5054187;28;20040;-68
2021/07/10 06:46:18;;;;;;;14.40;3.05;;;;;;;33.04;42.36;100469.69;5051706;28;20029;-68
2021/07/10 06:48:45;;;;;;;9.00;2.88;;;;;;;33.47;41.53;100468.88;5050807;28;20155;-67
2021/07/10 06:51:16;;;;;;;14.00;3.35;;;;;;;33.68;40.99;100471.63;5055521;28;20069;-68
2021/07/10 06:53:45;;;;;;;12.85;2.88;;;;;;;33.34;41.24;100468.19;5050207;28;20044;-68
2021/07/10 06:56:13;;;;;;;15.73;3.13;;;;;;;33.29;41.42;100473.16;5051130;28;20132;-67
2021/07/10 06:58:40;;;;;;;16.55;3.42;;;;;;;32.79;41.67;100476.31;5051057;28;20098;-67
2021/07/10 07:01:08;;;;;;;15.43;2.92;;;;;;;32.84;41.53;100474.06;5052958;28;20120;-67
2021/07/10 07:03:35;;;;;;;14.05;3.67;;;;;;;32.55;42.45;100467.34;5049138;28;20525;-67
2021/07/10 07:06:03;;;;;;;12.13;3.03;;;;;;;32.28;42.48;100488.69;5055132;28;20116;-67
2021/07/10 07:08:32;;;;;;;12.65;3.03;;;;;;;32.67;42.67;100488.25;5053379;28;20087;-67
2021/07/10 07:10:59;;;;;;;16.50;3.30;;;;;;;33.14;41.59;100481.63;5061192;28;20410;-67
2021/07/10 07:13:26;;;;;;;11.45;2.70;;;;;;;33.16;41.58;100484.22;5062182;28;20048;-67
2021/07/10 07:15:54;;;;;;;12.07;3.13;;;;;;;33.01;41.95;100482.75;5054085;28;20197;-68
2021/07/10 07:18:21;;;;;;;13.02;3.10;;;;;;;33.31;41.74;100488.44;5057552;28;20124;-66
2021/07/10 07:20:49;;;;;;;14.20;3.63;;;;;;;33.71;40.87;100496.94;5049877;28;20084;-67
2021/07/10 07:23:17;;;;;;;14.65;3.65;;;;;;;33.65;40.50;100482.88;5056687;28;20028;-67
2021/07/10 07:25:46;;;;;;;11.27;2.85;;;;;;;33.59;40.40;100487.00;5069364;28;20556;-67
2021/07/10 07:28:14;;;;;;;12.23;3.20;;;;;;;33.21;41.21;100471.91;5049303;28;20473;-66
2021/07/10 07:30:41;;;;;;;16.50;3.70;;;;;;;33.39;41.33;100487.81;5049309;28;20309;-67
2021/07/10 07:33:09;;;;;;;11.20;2.60;;;;;;;33.60;40.79;100483.28;5050649;28;20033;-67
2021/07/10 07:35:36;;;;;;;17.38;3.05;;;;;;;33.68;40.79;100480.72;5059147;28;20041;-66
2021/07/10 07:38:04;;;;;;;12.35;3.35;;;;;;;33.19;40.63;100489.47;5068632;28;20040;-66
2021/07/10 07:40:32;;;;;;;11.90;3.17;;;;;;;33.17;40.50;100499.66;5049050;28;20076;-66
2021/07/10 07:43:01;;;;;;;8.95;2.95;;;;;;;33.64;40.21;100495.69;5058333;28;20040;-68
2021/07/10 07:45:28;;;;;;;15.02;3.40;;;;;;;33.96;39.53;100495.69;5056939;28;20502;-67
2021/07/10 07:47:55;;;;;;;13.10;2.75;;;;;;;34.25;38.89;100502.31;5070042;28;20513;-67
2021/07/10 07:50:24;;;;;;;15.05;2.70;;;;;;;34.49;38.44;100496.53;5068422;28;20119;-67
2021/07/10 07:52:51;;;;;;;11.85;3.65;;;;;;;34.56;38.58;100505.09;5069991;28;20120;-67
2021/07/10 07:55:19;;;;;;;14.60;3.03;;;;;;;34.52;38.68;100501.75;5069679;28;21224;-66
2021/07/10 07:57:47;;;;;;;13.55;3.33;;;;;;;34.58;38.79;100503.09;5068983;28;20423;-67
2021/07/10 08:00:19;;;;;;;17.45;3.45;;;;;;;34.97;38.36;100513.25;5069362;28;20490;-67
2021/07/10 08:02:48;;;;;;;14.73;3.20;;;;;;;35.19;38.18;100501.19;5070201;28;20041;-66
2021/07/10 08:05:17;;;;;;;12.70;2.75;;;;;;;35.39;37.84;100518.59;5060186;28;20045;-66
2021/07/10 08:07:45;;;;;;;13.57;3.08;;;;;;;35.34;38.07;100508.03;5061608;28;20093;-66
2021/07/10 08:10:14;;;;;;;12.38;2.97;;;;;;;35.49;37.47;100520.38;5069024;28;20132;-66
2021/07/10 08:12:44;;;;;;;11.23;3.10;;;;;;;35.34;37.72;100502.56;5068826;28;20128;-67
2021/07/10 08:15:14;;;;;;;15.50;3.13;;;;;;;35.39;37.17;100516.72;5068706;28;20098;-67
2021/07/10 08:17:45;;;;;;;11.60;2.40;;;;;;;35.43;37.03;100520.06;5066265;28;20033;-69
2021/07/10 08:20:15;;;;;;;14.80;2.95;;;;;;;35.64;36.70;100523.59;5072234;28;20060;-69
2021/07/10 08:22:44;;;;;;;10.13;2.78;;;;;;;35.60;36.43;100532.22;5068341;28;20048;-68
2021/07/10 08:25:13;;;;;;;11.00;2.97;;;;;;;35.58;36.20;100514.00;5058084;28;20056;-68
2021/07/10 08:27:41;;;;;;;10.63;2.72;;;;;;;35.78;36.12;100520.41;5071506;28;20074;-68
2021/07/10 08:30:11;;;;;;;11.73;3.33;;;;;;;35.84;35.97;100528.09;5062237;28;20032;-69
2021/07/10 08:32:38;;;;;;;11.77;3.25;;;;;;;35.81;36.11;100520.16;5065225;28;20045;-69
2021/07/10 08:35:11;;;;;;;9.65;2.60;;;;;;;35.73;35.97;100535.59;5063020;28;20029;-69
2021/07/10 08:37:39;;;;;;;11.15;3.03;;;;;;;35.90;35.79;100533.03;5059948;28;20441;-69
2021/07/10 08:40:09;;;;;;;10.13;2.33;;;;;;;35.84;35.31;100538.25;5068013;28;20040;-69
2021/07/10 08:42:37;;;;;;;12.75;3.00;;;;;;;35.74;35.59;100526.34;5073645;28;20127;-68
2021/07/10 08:45:07;;;;;;;14.23;3.28;;;;;;;35.78;35.42;100519.56;5074209;28;20129;-69
2021/07/10 08:47:37;;;;;;;12.45;2.50;;;;;;;35.90;35.54;100534.91;5072981;28;20116;-70
2021/07/10 08:50:15;;;;;;;16.08;2.65;;;;;;;35.86;35.30;100539.81;5073167;28;20039;-69
2021/07/10 08:52:43;;;;;;;12.93;2.80;;;;;;;35.67;35.51;100534.28;5073923;28;20044;-70
2021/07/10 08:55:13;;;;;;;14.65;3.17;;;;;;;35.73;35.39;100530.13;5070315;28;20037;-69
2021/07/10 08:57:40;;;;;;;10.30;2.88;;;;;;;35.77;35.47;100523.34;5061804;28;20127;-70
2021/07/10 09:00:12;;;;;;;11.63;3.28;;;;;;;35.65;35.65;100521.69;5067147;28;20049;-70
2021/07/10 09:02:44;;;;;;;10.55;3.13;;;;;;;35.58;35.87;100541.47;5066543;28;20049;-70
2021/07/10 09:05:14;;;;;;;16.60;2.87;;;;;;;35.76;35.58;100541.69;5069755;28;20064;-70
2021/07/10 09:08:20;;;;;;;10.55;2.40;;;;;;;35.97;35.07;100534.16;5068458;28;20452;-70
2021/07/10 09:10:50;;;;;;;14.38;3.28;;;;;;;36.01;35.01;100539.38;5052886;28;20044;-69
2021/07/10 09:13:19;;;;;;;12.35;2.83;;;;;;;36.05;35.47;100538.06;5057830;28;20049;-69
2021/07/10 09:16:03;;;;;;;13.10;2.95;;;;;;;36.24;34.92;100540.84;5068160;28;20103;-69
2021/07/10 09:18:46;;;;;;;11.23;2.50;;;;;;;36.34;34.68;100542.59;5053035;28;20052;-70
2021/07/10 09:21:33;;;;;;;13.57;3.28;;;;;;;36.30;34.08;100534.78;5050072;28;20052;-71
2021/07/10 09:24:01;;;;;;;16.60;3.08;;;;;;;36.39;34.10;100531.13;5057928;28;20045;-68
2021/07/10 09:26:29;;;;;;;9.73;2.92;;;;;;;36.27;34.26;100524.94;5055765;28;20490;-69
2021/07/10 09:29:01;;;;;;;12.10;3.10;;;;;;;36.10;34.40;100539.41;5061925;28;20111;-70
2021/07/10 09:31:30;;;;;;;11.40;2.60;;;;;;;36.23;34.34;100544.63;5070585;28;20086;-70
2021/07/10 09:34:05;;;;;;;15.02;3.72;;;;;;;36.03;34.38;100538.25;5072227;28;20115;-70
2021/07/10 09:36:36;;;;;;;12.75;2.95;;;;;;;36.02;34.86;100538.38;5057439;28;20040;-70
2021/07/10 09:39:11;;;;;;;9.60;2.80;;;;;;;35.96;34.73;100548.09;5072464;28;20501;-70
2021/07/10 09:41:39;;;;;;;11.57;2.58;;;;;;;35.97;34.57;100547.91;5064238;28;20044;-71
2021/07/10 09:44:13;;;;;;;15.85;3.25;;;;;;;36.15;34.93;100531.56;5071477;28;20044;-70
2021/07/10 09:46:41;;;;;;;13.07;3.47;;;;;;;36.12;34.87;100536.47;5072098;28;20098;-70
2021/07/10 09:49:24;;;;;;;11.95;3.70;;;;;;;36.12;34.59;100536.47;5067449;28;20175;-69
2021/07/10 09:52:04;;;;;;;17.97;3.40;;;;;;;36.17;34.50;100537.81;5071270;28;20060;-70
2021/07/10 09:54:33;;;;;;;12.55;3.38;;;;;;;35.89;34.57;100525.78;5067591;28;20499;-69
2021/07/10 09:57:04;;;;;;;16.23;3.10;;;;;;;35.73;34.67;100533.72;5053920;28;20561;-68
2021/07/10 09:59:36;;;;;;;13.30;3.72;;;;;;;35.67;34.87;100539.75;5068045;28;20117;-70
2021/07/10 10:02:11;;;;;;;11.07;3.40;;;;;;;35.52;35.07;100524.69;5056446;28;20526;-69
2021/07/10 10:04:39;;;;;;;14.48;3.38;;;;;;;35.61;35.08;100536.72;5063228;28;20128;-70
2021/07/10 10:07:17;;;;;;;17.42;2.90;;;;;;;35.65;35.42;100522.53;5050554;28;20111;-68
2021/07/10 10:09:49;;;;;;;11.30;3.45;;;;;;;35.62;35.51;100521.97;5062027;28;20075;-68
2021/07/10 10:12:21;;;;;;;13.55;3.00;;;;;;;35.21;35.74;100496.44;5048299;28;20049;-69
2021/07/10 10:14:56;;;;;;;14.02;3.00;;;;;;;34.94;36.18;100529.13;5068389;28;20048;-70
2021/07/10 10:17:31;;;;;;;13.90;2.90;;;;;;;35.07;35.93;100527.00;5069911;28;20439;-69
2021/07/10 10:20:01;;;;;;;14.20;2.92;;;;;;;35.15;35.63;100525.31;5070737;28;20056;-70
2021/07/10 10:22:33;;;;;;;13.52;3.22;;;;;;;35.19;35.65;100517.66;5049447;28;20041;-70
2021/07/10 10:25:02;;;;;;;12.90;2.90;;;;;;;35.10;35.79;100516.63;5052396;28;20148;-70
2021/07/10 10:27:30;;;;;;;9.82;2.80;;;;;;;35.22;36.07;100516.53;5062983;28;20136;-70
2021/07/10 10:29:58;;;;;;;13.43;3.72;;;;;;;35.10;36.02;100521.25;5054698;28;20037;-70
2021/07/10 10:32:26;;;;;;;11.95;2.80;;;;;;;35.18;35.94;100507.69;5049598;28;20118;-70
2021/07/10 10:34:55;;;;;;;12.63;3.47;;;;;;;35.34;35.72;100519.03;5051184;28;20475;-70
2021/07/10 10:37:23;;;;;;;17.40;4.78;;;;;;;35.31;35.85;100522.06;5064287;28;20404;-70
2021/07/10 10:39:52;;;;;;;16.05;3.95;;;;;;;35.25;36.07;100538.25;5066225;28;20059;-70
2021/07/10 10:42:23;;;;;;;16.42;3.92;;;;;;;35.17;35.92;100517.81;5028887;28;20155;-70
2021/07/10 10:44:55;;;;;;;15.43;3.38;;;;;;;35.06;36.25;100519.78;5057060;28;20064;-70
2021/07/10 10:47:26;;;;;;;15.07;3.67;;;;;;;35.04;36.28;100521.81;5052938;28;20036;-69
2021/07/10 10:49:55;;;;;;;17.33;3.20;;;;;;;34.95;35.53;100523.50;5061280;28;20036;-71
2021/07/10 10:52:44;;;;;;;14.02;3.53;;;;;;;35.01;36.11;100531.19;5071168;28;20090;-71
2021/07/10 10:55:17;;;;;;;9.07;2.70;;;;;;;35.10;36.08;100526.75;5071354;28;20124;-70
2021/07/10 10:57:52;;;;;;;15.48;3.15;;;;;;;34.99;36.16;100527.69;5066520;28;20037;-70
2021/07/10 11:00:31;;;;;;;11.77;3.45;;;;;;;35.11;35.86;100523.00;5061005;28;20036;-70
2021/07/10 11:03:10;;;;;;;10.70;2.70;;;;;;;35.31;35.85;100522.06;5055687;28;20090;-70
2021/07/10 11:05:52;;;;;;;14.02;3.17;;;;;;;35.42;36.12;100524.69;5058014;28;20048;-70
2021/07/10 11:08:37;;;;;;;15.10;3.13;;;;;;;35.22;35.96;100520.16;5064081;28;20036;-69
2021/07/10 11:11:33;;;;;;;11.65;3.15;;;;;;;35.08;36.21;100520.50;5049865;28;20036;-70
2021/07/10 11:14:13;;;;;;;11.52;3.42;;;;;;;35.25;35.99;100527.25;5051695;28;20044;-70
2021/07/10 11:17:07;;;;;;;13.07;3.03;;;;;;;35.38;36.04;100525.97;5059679;28;20037;-70
2021/07/10 11:19:56;;;;;;;16.65;3.25;;;;;;;35.21;36.18;100521.16;5066464;28;20068;-70
2021/07/10 11:22:58;;;;;;;9.88;3.00;;;;;;;35.41;35.64;100519.34;5052499;28;20041;-70
2021/07/10 11:26:02;;;;;;;12.88;2.97;;;;;;;35.57;35.41;100522.41;5048399;28;20640;-70
2021/07/10 11:28:38;;;;;;;12.73;3.42;;;;;;;35.84;35.12;100508.84;5055437;28;20043;-70